sensor_id;sensor_type;location;lat;lon;timestamp;P1;durP1;ratioP1;P2;durP2;ratioP2
30571;SDS011;17348;50.948;10.696;2022-09-16T00:02:02;4.82;;;2.22;;
30571;SDS011;17348;50.948;10.696;2022-09-16T00:05:04;5.30;;;2.42;;
30571;SDS011;17348;50.948;10.696;2022-09-16T00:08:07;6.90;;;2.38;;
30571;SDS011;17348;50.948;10.696;2022-09-16T00:11:11;4.35;;;2.45;;
30571;SDS011;17348;50.948;10.696;2022-09-16T00:14:13;6.88;;;2.40;;
30571;SDS011;17348;50.948;10.696;2022-09-16T00:17:15;3.92;;;1.95;;
30571;SDS011;17348;50.948;10.696;2022-09-16T00:20:17;8.27;;;1.80;;
30571;SDS011;17348;50.948;10.696;2022-09-16T00:23:20;3.15;;;2.50;;
30571;SDS011;17348;50.948;10.696;2022-09-16T00:26:23;5.85;;;1.75;;
30571;SDS011;17348;50.948;10.696;2022-09-16T00:29:26;5.97;;;2.05;;
30571;SDS011;17348;50.948;10.696;2022-09-16T00:32:28;3.28;;;1.98;;
30571;SDS011;17348;50.948;10.696;2022-09-16T00:35:31;6.90;;;1.77;;
30571;SDS011;17348;50.948;10.696;2022-09-16T00:38:33;8.75;;;1.73;;
30571;SDS011;17348;50.948;10.696;2022-09-16T00:41:37;7.90;;;1.60;;
30571;SDS011;17348;50.948;10.696;2022-09-16T00:44:50;3.05;;;1.85;;
30571;SDS011;17348;50.948;10.696;2022-09-16T00:47:55;9.75;;;1.90;;
30571;SDS011;17348;50.948;10.696;2022-09-16T00:51:00;3.75;;;1.60;;
30571;SDS011;17348;50.948;10.696;2022-09-16T00:54:06;2.72;;;1.40;;
30571;SDS011;17348;50.948;10.696;2022-09-16T00:57:11;2.13;;;1.20;;
30571;SDS011;17348;50.948;10.696;2022-09-16T01:00:15;15.20;;;1.73;;
30571;SDS011;17348;50.948;10.696;2022-09-16T01:03:17;4.88;;;1.50;;
30571;SDS011;17348;50.948;10.696;2022-09-16T01:06:20;2.75;;;1.50;;
30571;SDS011;17348;50.948;10.696;2022-09-16T01:09:25;10.80;;;1.50;;
30571;SDS011;17348;50.948;10.696;2022-09-16T01:12:30;5.47;;;1.63;;
30571;SDS011;17348;50.948;10.696;2022-09-16T01:15:35;7.35;;;1.23;;
30571;SDS011;17348;50.948;10.696;2022-09-16T01:18:42;2.80;;;1.42;;
30571;SDS011;17348;50.948;10.696;2022-09-16T01:21:49;2.85;;;1.48;;
30571;SDS011;17348;50.948;10.696;2022-09-16T01:25:00;6.70;;;1.20;;
30571;SDS011;17348;50.948;10.696;2022-09-16T01:28:26;2.90;;;1.08;;
30571;SDS011;17348;50.948;10.696;2022-09-16T01:31:54;2.47;;;1.05;;
30571;SDS011;17348;50.948;10.696;2022-09-16T01:35:04;9.45;;;1.05;;
30571;SDS011;17348;50.948;10.696;2022-09-16T01:38:17;2.63;;;0.95;;
30571;SDS011;17348;50.948;10.696;2022-09-16T01:41:28;3.83;;;1.17;;
30571;SDS011;17348;50.948;10.696;2022-09-16T01:44:38;4.75;;;1.50;;
30571;SDS011;17348;50.948;10.696;2022-09-16T01:47:51;5.05;;;1.35;;
30571;SDS011;17348;50.948;10.696;2022-09-16T01:51:01;7.00;;;1.10;;
30571;SDS011;17348;50.948;10.696;2022-09-16T01:54:09;1.58;;;0.75;;
30571;SDS011;17348;50.948;10.696;2022-09-16T01:57:15;6.70;;;1.25;;
30571;SDS011;17348;50.948;10.696;2022-09-16T02:00:19;2.40;;;1.08;;
30571;SDS011;17348;50.948;10.696;2022-09-16T02:03:24;7.75;;;1.10;;
30571;SDS011;17348;50.948;10.696;2022-09-16T02:06:31;1.83;;;0.60;;
30571;SDS011;17348;50.948;10.696;2022-09-16T02:09:36;4.88;;;0.93;;
30571;SDS011;17348;50.948;10.696;2022-09-16T02:12:42;1.20;;;0.98;;
30571;SDS011;17348;50.948;10.696;2022-09-16T02:15:48;2.53;;;0.80;;
30571;SDS011;17348;50.948;10.696;2022-09-16T02:18:54;1.60;;;0.70;;
30571;SDS011;17348;50.948;10.696;2022-09-16T02:22:02;1.52;;;0.80;;
30571;SDS011;17348;50.948;10.696;2022-09-16T02:25:09;8.15;;;1.08;;
30571;SDS011;17348;50.948;10.696;2022-09-16T02:28:15;4.50;;;0.90;;
30571;SDS011;17348;50.948;10.696;2022-09-16T02:31:21;5.95;;;1.00;;
30571;SDS011;17348;50.948;10.696;2022-09-16T02:34:28;7.28;;;1.20;;
30571;SDS011;17348;50.948;10.696;2022-09-16T02:37:35;2.22;;;1.15;;
30571;SDS011;17348;50.948;10.696;2022-09-16T02:40:42;3.55;;;1.20;;
30571;SDS011;17348;50.948;10.696;2022-09-16T02:43:48;4.75;;;1.20;;
30571;SDS011;17348;50.948;10.696;2022-09-16T02:46:53;8.43;;;1.13;;
30571;SDS011;17348;50.948;10.696;2022-09-16T02:50:04;7.43;;;1.48;;
30571;SDS011;17348;50.948;10.696;2022-09-16T02:53:13;3.97;;;1.40;;
30571;SDS011;17348;50.948;10.696;2022-09-16T02:56:23;5.32;;;1.50;;
30571;SDS011;17348;50.948;10.696;2022-09-16T02:59:30;3.40;;;1.48;;
30571;SDS011;17348;50.948;10.696;2022-09-16T03:02:33;5.40;;;1.40;;
30571;SDS011;17348;50.948;10.696;2022-09-16T03:05:38;4.95;;;1.95;;
30571;SDS011;17348;50.948;10.696;2022-09-16T03:09:04;3.83;;;1.58;;
30571;SDS011;17348;50.948;10.696;2022-09-16T03:12:19;7.38;;;1.77;;
30571;SDS011;17348;50.948;10.696;2022-09-16T03:15:38;3.30;;;1.60;;
30571;SDS011;17348;50.948;10.696;2022-09-16T03:18:50;17.05;;;2.33;;
30571;SDS011;17348;50.948;10.696;2022-09-16T03:22:04;11.93;;;2.10;;
30571;SDS011;17348;50.948;10.696;2022-09-16T03:25:12;4.10;;;2.00;;
30571;SDS011;17348;50.948;10.696;2022-09-16T03:28:24;4.95;;;2.22;;
30571;SDS011;17348;50.948;10.696;2022-09-16T03:31:34;8.55;;;2.20;;
30571;SDS011;17348;50.948;10.696;2022-09-16T03:34:40;4.68;;;1.90;;
30571;SDS011;17348;50.948;10.696;2022-09-16T03:37:49;10.63;;;2.08;;
30571;SDS011;17348;50.948;10.696;2022-09-16T03:40:54;8.30;;;2.25;;
30571;SDS011;17348;50.948;10.696;2022-09-16T03:43:57;10.52;;;2.88;;
30571;SDS011;17348;50.948;10.696;2022-09-16T03:47:00;6.68;;;2.97;;
30571;SDS011;17348;50.948;10.696;2022-09-16T03:50:02;6.05;;;2.85;;
30571;SDS011;17348;50.948;10.696;2022-09-16T03:53:06;9.35;;;3.33;;
30571;SDS011;17348;50.948;10.696;2022-09-16T03:56:09;7.35;;;2.92;;
30571;SDS011;17348;50.948;10.696;2022-09-16T03:59:11;8.65;;;3.70;;
30571;SDS011;17348;50.948;10.696;2022-09-16T04:02:13;10.43;;;3.50;;
30571;SDS011;17348;50.948;10.696;2022-09-16T04:05:15;8.70;;;3.65;;
30571;SDS011;17348;50.948;10.696;2022-09-16T04:08:19;13.30;;;3.80;;
30571;SDS011;17348;50.948;10.696;2022-09-16T04:11:22;15.15;;;3.75;;
30571;SDS011;17348;50.948;10.696;2022-09-16T04:14:24;6.50;;;3.90;;
30571;SDS011;17348;50.948;10.696;2022-09-16T04:17:26;9.30;;;3.63;;
30571;SDS011;17348;50.948;10.696;2022-09-16T04:20:32;7.68;;;3.42;;
30571;SDS011;17348;50.948;10.696;2022-09-16T04:23:35;10.80;;;4.60;;
30571;SDS011;17348;50.948;10.696;2022-09-16T04:26:37;9.63;;;3.42;;
30571;SDS011;17348;50.948;10.696;2022-09-16T04:29:40;4.78;;;3.13;;
30571;SDS011;17348;50.948;10.696;2022-09-16T04:32:42;10.95;;;4.35;;
30571;SDS011;17348;50.948;10.696;2022-09-16T04:35:45;14.80;;;3.92;;
30571;SDS011;17348;50.948;10.696;2022-09-16T04:38:48;10.15;;;3.95;;
30571;SDS011;17348;50.948;10.696;2022-09-16T04:41:51;11.27;;;4.05;;
30571;SDS011;17348;50.948;10.696;2022-09-16T04:44:53;6.45;;;3.47;;
30571;SDS011;17348;50.948;10.696;2022-09-16T04:47:55;8.13;;;3.38;;
30571;SDS011;17348;50.948;10.696;2022-09-16T04:51:01;9.57;;;3.20;;
30571;SDS011;17348;50.948;10.696;2022-09-16T04:54:05;11.15;;;3.50;;
30571;SDS011;17348;50.948;10.696;2022-09-16T04:57:08;6.10;;;3.35;;
30571;SDS011;17348;50.948;10.696;2022-09-16T05:00:10;8.95;;;3.65;;
30571;SDS011;17348;50.948;10.696;2022-09-16T05:03:13;5.90;;;3.30;;
30571;SDS011;17348;50.948;10.696;2022-09-16T05:06:16;8.07;;;2.95;;
30571;SDS011;17348;50.948;10.696;2022-09-16T05:09:20;18.17;;;3.63;;
30571;SDS011;17348;50.948;10.696;2022-09-16T05:12:23;8.35;;;3.55;;
30571;SDS011;17348;50.948;10.696;2022-09-16T05:15:25;9.15;;;3.47;;
30571;SDS011;17348;50.948;10.696;2022-09-16T05:18:27;11.40;;;3.95;;
30571;SDS011;17348;50.948;10.696;2022-09-16T05:21:30;10.07;;;3.58;;
30571;SDS011;17348;50.948;10.696;2022-09-16T05:24:35;7.85;;;4.28;;
30571;SDS011;17348;50.948;10.696;2022-09-16T05:27:38;7.72;;;5.00;;
30571;SDS011;17348;50.948;10.696;2022-09-16T05:30:40;7.28;;;3.90;;
30571;SDS011;17348;50.948;10.696;2022-09-16T05:33:43;11.98;;;4.05;;
30571;SDS011;17348;50.948;10.696;2022-09-16T05:36:46;6.25;;;4.00;;
30571;SDS011;17348;50.948;10.696;2022-09-16T05:39:51;9.50;;;4.10;;
30571;SDS011;17348;50.948;10.696;2022-09-16T05:42:53;10.80;;;4.35;;
30571;SDS011;17348;50.948;10.696;2022-09-16T05:45:56;9.85;;;3.72;;
30571;SDS011;17348;50.948;10.696;2022-09-16T05:48:58;7.75;;;4.90;;
30571;SDS011;17348;50.948;10.696;2022-09-16T05:52:00;12.85;;;3.50;;
30571;SDS011;17348;50.948;10.696;2022-09-16T05:55:05;8.98;;;3.55;;
30571;SDS011;17348;50.948;10.696;2022-09-16T05:58:07;9.18;;;3.72;;
30571;SDS011;17348;50.948;10.696;2022-09-16T06:01:10;6.90;;;4.03;;
30571;SDS011;17348;50.948;10.696;2022-09-16T06:04:14;12.02;;;3.85;;
30571;SDS011;17348;50.948;10.696;2022-09-16T06:07:16;3.88;;;2.95;;
30571;SDS011;17348;50.948;10.696;2022-09-16T06:10:20;6.55;;;3.20;;
30571;SDS011;17348;50.948;10.696;2022-09-16T06:13:22;9.75;;;3.53;;
30571;SDS011;17348;50.948;10.696;2022-09-16T06:16:25;4.28;;;2.60;;
30571;SDS011;17348;50.948;10.696;2022-09-16T06:19:28;5.05;;;2.67;;
30571;SDS011;17348;50.948;10.696;2022-09-16T06:22:30;6.10;;;2.28;;
30571;SDS011;17348;50.948;10.696;2022-09-16T06:25:33;5.72;;;2.65;;
30571;SDS011;17348;50.948;10.696;2022-09-16T06:28:36;12.95;;;2.30;;
30571;SDS011;17348;50.948;10.696;2022-09-16T06:31:38;4.22;;;2.40;;
30571;SDS011;17348;50.948;10.696;2022-09-16T06:34:41;5.60;;;2.50;;
30571;SDS011;17348;50.948;10.696;2022-09-16T06:37:43;4.68;;;2.30;;
30571;SDS011;17348;50.948;10.696;2022-09-16T06:40:47;5.03;;;2.28;;
30571;SDS011;17348;50.948;10.696;2022-09-16T06:43:50;5.38;;;2.35;;
30571;SDS011;17348;50.948;10.696;2022-09-16T06:46:52;8.77;;;2.10;;
30571;SDS011;17348;50.948;10.696;2022-09-16T06:49:54;5.97;;;2.28;;
30571;SDS011;17348;50.948;10.696;2022-09-16T06:52:56;9.07;;;2.30;;
30571;SDS011;17348;50.948;10.696;2022-09-16T06:56:00;4.30;;;1.60;;
30571;SDS011;17348;50.948;10.696;2022-09-16T06:59:04;7.30;;;2.58;;
30571;SDS011;17348;50.948;10.696;2022-09-16T07:02:07;3.50;;;1.70;;
30571;SDS011;17348;50.948;10.696;2022-09-16T07:05:11;5.75;;;2.67;;
30571;SDS011;17348;50.948;10.696;2022-09-16T07:08:14;11.45;;;2.10;;
30571;SDS011;17348;50.948;10.696;2022-09-16T07:11:18;6.75;;;2.15;;
30571;SDS011;17348;50.948;10.696;2022-09-16T07:14:21;3.85;;;2.00;;
30571;SDS011;17348;50.948;10.696;2022-09-16T07:17:24;12.52;;;2.00;;
30571;SDS011;17348;50.948;10.696;2022-09-16T07:20:26;6.15;;;1.83;;
30571;SDS011;17348;50.948;10.696;2022-09-16T07:23:29;2.92;;;1.45;;
30571;SDS011;17348;50.948;10.696;2022-09-16T07:26:34;3.33;;;1.42;;
30571;SDS011;17348;50.948;10.696;2022-09-16T07:29:37;6.57;;;1.83;;
30571;SDS011;17348;50.948;10.696;2022-09-16T07:32:39;2.88;;;1.73;;
30571;SDS011;17348;50.948;10.696;2022-09-16T07:35:41;8.02;;;2.00;;
30571;SDS011;17348;50.948;10.696;2022-09-16T07:38:44;4.00;;;1.38;;
30571;SDS011;17348;50.948;10.696;2022-09-16T07:41:48;2.08;;;1.40;;
30571;SDS011;17348;50.948;10.696;2022-09-16T07:44:50;4.78;;;1.50;;
30571;SDS011;17348;50.948;10.696;2022-09-16T07:47:52;2.22;;;1.70;;
30571;SDS011;17348;50.948;10.696;2022-09-16T07:50:55;6.38;;;1.73;;
30571;SDS011;17348;50.948;10.696;2022-09-16T07:53:58;5.93;;;2.10;;
30571;SDS011;17348;50.948;10.696;2022-09-16T07:57:04;12.00;;;2.13;;
30571;SDS011;17348;50.948;10.696;2022-09-16T08:00:09;3.35;;;1.75;;
30571;SDS011;17348;50.948;10.696;2022-09-16T08:03:12;5.63;;;2.20;;
30571;SDS011;17348;50.948;10.696;2022-09-16T08:06:16;5.53;;;1.50;;
30571;SDS011;17348;50.948;10.696;2022-09-16T08:09:19;5.50;;;2.08;;
30571;SDS011;17348;50.948;10.696;2022-09-16T08:12:23;7.43;;;1.42;;
30571;SDS011;17348;50.948;10.696;2022-09-16T08:15:31;12.60;;;2.03;;
30571;SDS011;17348;50.948;10.696;2022-09-16T08:18:34;4.57;;;1.60;;
30571;SDS011;17348;50.948;10.696;2022-09-16T08:21:37;3.95;;;1.45;;
30571;SDS011;17348;50.948;10.696;2022-09-16T08:24:39;7.30;;;1.55;;
30571;SDS011;17348;50.948;10.696;2022-09-16T08:27:42;4.55;;;1.45;;
30571;SDS011;17348;50.948;10.696;2022-09-16T08:30:45;3.88;;;1.33;;
30571;SDS011;17348;50.948;10.696;2022-09-16T08:33:47;3.88;;;1.40;;
30571;SDS011;17348;50.948;10.696;2022-09-16T08:36:49;5.88;;;1.25;;
30571;SDS011;17348;50.948;10.696;2022-09-16T08:39:52;7.63;;;1.67;;
30571;SDS011;17348;50.948;10.696;2022-09-16T08:42:57;4.50;;;1.42;;
30571;SDS011;17348;50.948;10.696;2022-09-16T08:46:06;6.10;;;1.48;;
30571;SDS011;17348;50.948;10.696;2022-09-16T08:49:16;1.52;;;1.00;;
30571;SDS011;17348;50.948;10.696;2022-09-16T08:52:27;2.53;;;1.27;;
30571;SDS011;17348;50.948;10.696;2022-09-16T08:55:33;1.73;;;1.23;;
30571;SDS011;17348;50.948;10.696;2022-09-16T08:58:41;7.05;;;1.50;;
30571;SDS011;17348;50.948;10.696;2022-09-16T09:01:46;36.22;;;2.42;;
30571;SDS011;17348;50.948;10.696;2022-09-16T09:04:54;4.63;;;1.40;;
30571;SDS011;17348;50.948;10.696;2022-09-16T09:08:05;4.57;;;1.42;;
30571;SDS011;17348;50.948;10.696;2022-09-16T09:11:20;2.05;;;1.30;;
30571;SDS011;17348;50.948;10.696;2022-09-16T09:14:31;8.38;;;1.90;;
30571;SDS011;17348;50.948;10.696;2022-09-16T09:17:46;3.67;;;1.40;;
30571;SDS011;17348;50.948;10.696;2022-09-16T09:21:02;4.45;;;1.15;;
30571;SDS011;17348;50.948;10.696;2022-09-16T09:24:17;4.88;;;2.55;;
30571;SDS011;17348;50.948;10.696;2022-09-16T09:27:30;2.28;;;1.30;;
30571;SDS011;17348;50.948;10.696;2022-09-16T09:30:39;1.75;;;1.00;;
30571;SDS011;17348;50.948;10.696;2022-09-16T09:33:47;4.05;;;0.95;;
30571;SDS011;17348;50.948;10.696;2022-09-16T09:36:58;3.28;;;1.15;;
30571;SDS011;17348;50.948;10.696;2022-09-16T09:40:14;4.80;;;1.30;;
30571;SDS011;17348;50.948;10.696;2022-09-16T09:43:22;3.53;;;0.90;;
30571;SDS011;17348;50.948;10.696;2022-09-16T09:46:34;5.97;;;1.43;;
30571;SDS011;17348;50.948;10.696;2022-09-16T09:49:42;2.78;;;1.20;;
30571;SDS011;17348;50.948;10.696;2022-09-16T09:52:51;5.10;;;1.30;;
30571;SDS011;17348;50.948;10.696;2022-09-16T09:56:14;3.22;;;1.20;;
30571;SDS011;17348;50.948;10.696;2022-09-16T09:59:24;3.22;;;1.20;;
30571;SDS011;17348;50.948;10.696;2022-09-16T10:02:31;5.78;;;1.20;;
30571;SDS011;17348;50.948;10.696;2022-09-16T10:05:39;5.78;;;1.30;;
30571;SDS011;17348;50.948;10.696;2022-09-16T10:08:42;1.67;;;0.82;;
30571;SDS011;17348;50.948;10.696;2022-09-16T10:11:47;2.13;;;1.05;;
30571;SDS011;17348;50.948;10.696;2022-09-16T10:14:51;3.63;;;1.55;;
30571;SDS011;17348;50.948;10.696;2022-09-16T10:17:56;7.45;;;0.77;;
30571;SDS011;17348;50.948;10.696;2022-09-16T10:21:02;2.47;;;0.80;;
30571;SDS011;17348;50.948;10.696;2022-09-16T10:24:20;0.98;;;0.80;;
30571;SDS011;17348;50.948;10.696;2022-09-16T10:27:32;4.10;;;1.23;;
30571;SDS011;17348;50.948;10.696;2022-09-16T10:30:41;2.28;;;0.70;;
30571;SDS011;17348;50.948;10.696;2022-09-16T10:33:47;5.80;;;0.93;;
30571;SDS011;17348;50.948;10.696;2022-09-16T10:37:00;5.07;;;0.93;;
30571;SDS011;17348;50.948;10.696;2022-09-16T10:40:04;6.80;;;0.98;;
30571;SDS011;17348;50.948;10.696;2022-09-16T10:43:19;3.08;;;0.73;;
30571;SDS011;17348;50.948;10.696;2022-09-16T10:46:22;4.22;;;2.13;;
30571;SDS011;17348;50.948;10.696;2022-09-16T10:49:29;6.70;;;2.75;;
30571;SDS011;17348;50.948;10.696;2022-09-16T10:52:40;1.67;;;1.20;;
30571;SDS011;17348;50.948;10.696;2022-09-16T10:55:54;4.88;;;1.23;;
30571;SDS011;17348;50.948;10.696;2022-09-16T10:59:01;2.60;;;0.98;;
30571;SDS011;17348;50.948;10.696;2022-09-16T11:02:07;1.88;;;0.82;;
30571;SDS011;17348;50.948;10.696;2022-09-16T11:05:31;3.80;;;0.70;;
30571;SDS011;17348;50.948;10.696;2022-09-16T11:08:44;8.07;;;1.30;;
30571;SDS011;17348;50.948;10.696;2022-09-16T11:12:04;3.70;;;1.33;;
30571;SDS011;17348;50.948;10.696;2022-09-16T11:15:25;5.90;;;1.30;;
30571;SDS011;17348;50.948;10.696;2022-09-16T11:18:40;1.13;;;0.90;;
30571;SDS011;17348;50.948;10.696;2022-09-16T11:21:52;2.17;;;1.02;;
30571;SDS011;17348;50.948;10.696;2022-09-16T11:28:47;2.08;;;0.75;;
30571;SDS011;17348;50.948;10.696;2022-09-16T11:32:01;3.63;;;0.70;;
30571;SDS011;17348;50.948;10.696;2022-09-16T11:35:25;1.15;;;0.65;;
30571;SDS011;17348;50.948;10.696;2022-09-16T11:38:42;0.95;;;0.60;;
30571;SDS011;17348;50.948;10.696;2022-09-16T11:41:57;2.63;;;0.70;;
30571;SDS011;17348;50.948;10.696;2022-09-16T11:45:19;0.98;;;0.50;;
30571;SDS011;17348;50.948;10.696;2022-09-16T11:48:35;0.80;;;0.43;;
30571;SDS011;17348;50.948;10.696;2022-09-16T11:51:52;2.13;;;0.70;;
30571;SDS011;17348;50.948;10.696;2022-09-16T11:55:11;2.80;;;0.80;;
30571;SDS011;17348;50.948;10.696;2022-09-16T11:58:38;5.13;;;1.08;;
30571;SDS011;17348;50.948;10.696;2022-09-16T12:01:47;1.58;;;0.70;;
30571;SDS011;17348;50.948;10.696;2022-09-16T12:04:55;2.72;;;0.93;;
30571;SDS011;17348;50.948;10.696;2022-09-16T12:08:05;3.10;;;1.05;;
30571;SDS011;17348;50.948;10.696;2022-09-16T12:11:15;2.03;;;0.90;;
30571;SDS011;17348;50.948;10.696;2022-09-16T12:14:22;1.17;;;0.75;;
30571;SDS011;17348;50.948;10.696;2022-09-16T12:17:29;1.20;;;0.75;;
30571;SDS011;17348;50.948;10.696;2022-09-16T12:20:35;1.10;;;1.00;;
30571;SDS011;17348;50.948;10.696;2022-09-16T12:23:43;4.88;;;0.93;;
30571;SDS011;17348;50.948;10.696;2022-09-16T12:26:55;2.35;;;1.05;;
30571;SDS011;17348;50.948;10.696;2022-09-16T12:30:04;1.77;;;0.82;;
30571;SDS011;17348;50.948;10.696;2022-09-16T12:33:19;4.20;;;0.75;;
30571;SDS011;17348;50.948;10.696;2022-09-16T12:36:26;2.25;;;0.90;;
30571;SDS011;17348;50.948;10.696;2022-09-16T12:39:31;1.52;;;0.80;;
30571;SDS011;17348;50.948;10.696;2022-09-16T12:49:56;1.95;;;0.68;;
30571;SDS011;17348;50.948;10.696;2022-09-16T12:53:30;2.72;;;0.88;;
30571;SDS011;17348;50.948;10.696;2022-09-16T12:56:52;0.82;;;0.60;;
30571;SDS011;17348;50.948;10.696;2022-09-16T13:00:15;1.13;;;0.65;;
30571;SDS011;17348;50.948;10.696;2022-09-16T13:03:27;1.08;;;0.55;;
30571;SDS011;17348;50.948;10.696;2022-09-16T13:06:34;0.93;;;0.70;;
30571;SDS011;17348;50.948;10.696;2022-09-16T13:09:43;2.65;;;0.88;;
30571;SDS011;17348;50.948;10.696;2022-09-16T13:12:50;0.80;;;0.60;;
30571;SDS011;17348;50.948;10.696;2022-09-16T13:15:56;7.05;;;0.75;;
30571;SDS011;17348;50.948;10.696;2022-09-16T13:19:06;0.70;;;0.40;;
30571;SDS011;17348;50.948;10.696;2022-09-16T13:22:23;0.90;;;0.55;;
30571;SDS011;17348;50.948;10.696;2022-09-16T13:25:31;1.13;;;0.63;;
30571;SDS011;17348;50.948;10.696;2022-09-16T13:28:36;1.52;;;0.57;;
30571;SDS011;17348;50.948;10.696;2022-09-16T13:31:45;0.60;;;0.60;;
30571;SDS011;17348;50.948;10.696;2022-09-16T13:34:58;0.50;;;0.30;;
30571;SDS011;17348;50.948;10.696;2022-09-16T13:38:10;0.50;;;0.40;;
30571;SDS011;17348;50.948;10.696;2022-09-16T13:41:36;3.00;;;0.70;;
30571;SDS011;17348;50.948;10.696;2022-09-16T13:44:40;1.23;;;0.57;;
30571;SDS011;17348;50.948;10.696;2022-09-16T13:47:48;1.27;;;0.77;;
30571;SDS011;17348;50.948;10.696;2022-09-16T13:50:50;0.63;;;0.57;;
30571;SDS011;17348;50.948;10.696;2022-09-16T13:53:55;1.48;;;0.75;;
30571;SDS011;17348;50.948;10.696;2022-09-16T13:57:04;1.13;;;0.55;;
30571;SDS011;17348;50.948;10.696;2022-09-16T14:00:30;2.25;;;0.65;;
30571;SDS011;17348;50.948;10.696;2022-09-16T14:03:43;2.25;;;0.70;;
30571;SDS011;17348;50.948;10.696;2022-09-16T14:06:54;2.10;;;0.45;;
30571;SDS011;17348;50.948;10.696;2022-09-16T14:10:06;1.52;;;0.50;;
30571;SDS011;17348;50.948;10.696;2022-09-16T14:13:12;2.05;;;0.75;;
30571;SDS011;17348;50.948;10.696;2022-09-16T14:16:17;1.27;;;0.70;;
30571;SDS011;17348;50.948;10.696;2022-09-16T14:19:24;0.98;;;0.57;;
30571;SDS011;17348;50.948;10.696;2022-09-16T14:22:28;3.92;;;0.68;;
30571;SDS011;17348;50.948;10.696;2022-09-16T14:25:33;2.13;;;1.02;;
30571;SDS011;17348;50.948;10.696;2022-09-16T14:28:38;3.15;;;0.82;;
30571;SDS011;17348;50.948;10.696;2022-09-16T14:31:41;2.67;;;0.52;;
30571;SDS011;17348;50.948;10.696;2022-09-16T14:34:46;1.40;;;0.60;;
30571;SDS011;17348;50.948;10.696;2022-09-16T14:37:52;4.70;;;0.80;;
30571;SDS011;17348;50.948;10.696;2022-09-16T14:40:57;1.23;;;0.60;;
30571;SDS011;17348;50.948;10.696;2022-09-16T14:44:01;1.60;;;0.50;;
30571;SDS011;17348;50.948;10.696;2022-09-16T14:47:15;3.97;;;0.80;;
30571;SDS011;17348;50.948;10.696;2022-09-16T14:50:22;5.15;;;1.20;;
30571;SDS011;17348;50.948;10.696;2022-09-16T14:53:29;2.92;;;0.75;;
30571;SDS011;17348;50.948;10.696;2022-09-16T14:56:32;2.15;;;0.65;;
30571;SDS011;17348;50.948;10.696;2022-09-16T14:59:35;1.17;;;0.55;;
30571;SDS011;17348;50.948;10.696;2022-09-16T15:02:40;1.75;;;0.88;;
30571;SDS011;17348;50.948;10.696;2022-09-16T15:05:47;2.78;;;0.52;;
30571;SDS011;17348;50.948;10.696;2022-09-16T15:08:51;2.42;;;0.60;;
30571;SDS011;17348;50.948;10.696;2022-09-16T15:11:58;6.20;;;0.60;;
30571;SDS011;17348;50.948;10.696;2022-09-16T15:15:02;1.83;;;0.45;;
30571;SDS011;17348;50.948;10.696;2022-09-16T15:18:06;1.33;;;0.70;;
30571;SDS011;17348;50.948;10.696;2022-09-16T15:21:15;3.40;;;0.77;;
30571;SDS011;17348;50.948;10.696;2022-09-16T15:24:21;1.38;;;0.68;;
30571;SDS011;17348;50.948;10.696;2022-09-16T15:27:28;0.77;;;0.60;;
30571;SDS011;17348;50.948;10.696;2022-09-16T15:30:32;1.88;;;0.82;;
30571;SDS011;17348;50.948;10.696;2022-09-16T15:33:35;6.60;;;1.20;;
30571;SDS011;17348;50.948;10.696;2022-09-16T15:36:43;3.28;;;2.15;;
30571;SDS011;17348;50.948;10.696;2022-09-16T15:39:47;5.85;;;0.93;;
30571;SDS011;17348;50.948;10.696;2022-09-16T15:42:59;2.65;;;1.42;;
30571;SDS011;17348;50.948;10.696;2022-09-16T15:46:14;2.70;;;0.75;;
30571;SDS011;17348;50.948;10.696;2022-09-16T15:49:21;1.30;;;0.68;;
30571;SDS011;17348;50.948;10.696;2022-09-16T15:52:27;2.60;;;0.50;;
30571;SDS011;17348;50.948;10.696;2022-09-16T15:55:33;1.35;;;0.30;;
30571;SDS011;17348;50.948;10.696;2022-09-16T15:58:38;5.13;;;0.40;;
30571;SDS011;17348;50.948;10.696;2022-09-16T16:01:43;1.48;;;0.60;;
30571;SDS011;17348;50.948;10.696;2022-09-16T16:04:49;0.98;;;0.30;;
30571;SDS011;17348;50.948;10.696;2022-09-16T16:07:55;2.80;;;1.30;;
30571;SDS011;17348;50.948;10.696;2022-09-16T16:11:04;0.90;;;0.90;;
30571;SDS011;17348;50.948;10.696;2022-09-16T16:14:08;3.22;;;0.80;;
30571;SDS011;17348;50.948;10.696;2022-09-16T16:17:11;4.38;;;0.40;;
30571;SDS011;17348;50.948;10.696;2022-09-16T16:20:15;3.72;;;0.47;;
30571;SDS011;17348;50.948;10.696;2022-09-16T16:23:21;1.67;;;0.40;;
30571;SDS011;17348;50.948;10.696;2022-09-16T16:26:24;3.38;;;1.10;;
30571;SDS011;17348;50.948;10.696;2022-09-16T16:29:26;6.78;;;0.47;;
30571;SDS011;17348;50.948;10.696;2022-09-16T16:32:28;0.40;;;0.30;;
30571;SDS011;17348;50.948;10.696;2022-09-16T16:35:31;2.17;;;0.55;;
30571;SDS011;17348;50.948;10.696;2022-09-16T16:38:36;2.15;;;0.60;;
30571;SDS011;17348;50.948;10.696;2022-09-16T16:41:39;2.10;;;0.63;;
30571;SDS011;17348;50.948;10.696;2022-09-16T16:44:42;1.38;;;0.45;;
30571;SDS011;17348;50.948;10.696;2022-09-16T16:47:45;2.40;;;0.60;;
30571;SDS011;17348;50.948;10.696;2022-09-16T16:50:53;0.70;;;0.40;;
30571;SDS011;17348;50.948;10.696;2022-09-16T16:53:58;1.48;;;0.43;;
30571;SDS011;17348;50.948;10.696;2022-09-16T16:57:00;3.63;;;0.40;;
30571;SDS011;17348;50.948;10.696;2022-09-16T17:00:06;4.88;;;0.63;;
30571;SDS011;17348;50.948;10.696;2022-09-16T17:03:09;1.83;;;0.50;;
30571;SDS011;17348;50.948;10.696;2022-09-16T17:06:12;7.40;;;0.40;;
30571;SDS011;17348;50.948;10.696;2022-09-16T17:09:16;1.30;;;0.60;;
30571;SDS011;17348;50.948;10.696;2022-09-16T17:12:18;4.18;;;0.80;;
30571;SDS011;17348;50.948;10.696;2022-09-16T17:15:20;2.33;;;0.52;;
30571;SDS011;17348;50.948;10.696;2022-09-16T17:18:23;3.70;;;0.45;;
30571;SDS011;17348;50.948;10.696;2022-09-16T17:21:25;0.90;;;0.30;;
30571;SDS011;17348;50.948;10.696;2022-09-16T17:24:30;3.00;;;0.60;;
30571;SDS011;17348;50.948;10.696;2022-09-16T17:27:34;1.92;;;0.38;;
30571;SDS011;17348;50.948;10.696;2022-09-16T17:30:41;4.60;;;0.30;;
30571;SDS011;17348;50.948;10.696;2022-09-16T17:33:43;2.75;;;0.60;;
30571;SDS011;17348;50.948;10.696;2022-09-16T17:36:46;1.80;;;0.50;;
30571;SDS011;17348;50.948;10.696;2022-09-16T17:39:49;2.22;;;0.40;;
30571;SDS011;17348;50.948;10.696;2022-09-16T17:42:54;2.67;;;0.50;;
30571;SDS011;17348;50.948;10.696;2022-09-16T17:45:56;2.08;;;0.55;;
30571;SDS011;17348;50.948;10.696;2022-09-16T17:48:59;2.85;;;0.45;;
30571;SDS011;17348;50.948;10.696;2022-09-16T17:52:02;1.20;;;0.35;;
30571;SDS011;17348;50.948;10.696;2022-09-16T17:55:06;0.40;;;0.35;;
30571;SDS011;17348;50.948;10.696;2022-09-16T17:58:11;1.45;;;0.40;;
30571;SDS011;17348;50.948;10.696;2022-09-16T18:01:15;2.03;;;1.60;;
30571;SDS011;17348;50.948;10.696;2022-09-16T18:04:18;2.50;;;0.57;;
30571;SDS011;17348;50.948;10.696;2022-09-16T18:07:20;1.48;;;0.60;;
30571;SDS011;17348;50.948;10.696;2022-09-16T18:10:25;3.75;;;1.30;;
30571;SDS011;17348;50.948;10.696;2022-09-16T18:13:28;2.63;;;0.82;;
30571;SDS011;17348;50.948;10.696;2022-09-16T18:16:30;3.42;;;0.80;;
30571;SDS011;17348;50.948;10.696;2022-09-16T18:19:39;3.97;;;1.08;;
30571;SDS011;17348;50.948;10.696;2022-09-16T18:22:41;1.23;;;0.95;;
30571;SDS011;17348;50.948;10.696;2022-09-16T18:25:45;5.30;;;0.82;;
30571;SDS011;17348;50.948;10.696;2022-09-16T18:28:47;2.97;;;1.10;;
30571;SDS011;17348;50.948;10.696;2022-09-16T18:31:50;4.47;;;1.10;;
30571;SDS011;17348;50.948;10.696;2022-09-16T18:34:54;3.95;;;1.00;;
30571;SDS011;17348;50.948;10.696;2022-09-16T18:37:58;5.70;;;1.35;;